• Join FlightAware (Why Join?)
  • Login
  • US Flag 
10:01AM EDT


 

Airport Tracker/Info


-or-


 

Live Flight TrackerFlight Track Log ✈ DLA1865 ✈ 18-Apr-2013 ✈ LIMC / MXP - EDDM / MUC

Flight Track Log - Related Links

Times and Time Zones

All times are in EDT time to prevent confusion due to time zone crossing. See the DLA1865 flight status page for this flight to view local times or setup timezone preferences in your user account.

Time Position Orientation Groundspeed Altitude Reporting Facility
EDT Latitude Longitude Course Direction KTS MPH feet Rate Location/Type
04:11PM 46.2885 9.4308 36° Northeast  Level Estimated
04:12PM 46.3481 9.4955 37° Northeast  Level Estimated
04:13PM 46.4076 9.5603 37° Northeast  Level Estimated
04:14PM 46.4671 9.6253 37° Northeast  Level Estimated
04:15PM 46.5266 9.6904 37° Northeast  Level Estimated
04:16PM 46.5861 9.7557 37° Northeast  Level Estimated
04:17PM 46.6455 9.8211 37° Northeast  Level Estimated
04:18PM 46.7048 9.8867 37° Northeast  Level Estimated
04:19PM 46.7642 9.9524 37° Northeast  Level Estimated
04:20PM 46.8235 10.0183 37° Northeast  Level Estimated
04:21PM 46.8827 10.0843 37° Northeast  Level Estimated
04:22PM 46.9419 10.1504 37° Northeast  Level Estimated
04:23PM 47.0011 10.2167 37° Northeast  Level Estimated
04:24PM 47.0603 10.2832 37° Northeast  Level Estimated
04:25PM 47.1194 10.3498 37° Northeast  Level Estimated
04:26PM 47.1784 10.4165 38° Northeast  Level Estimated
04:27PM 47.2374 10.4834 38° Northeast  Level Estimated
04:28PM 47.2964 10.5504 38° Northeast  Level Estimated
04:29PM 47.3554 10.6176 38° Northeast  Level Estimated
04:30PM 47.4143 10.6849 38° Northeast  Level Estimated
04:31PM 47.4732 10.7524 38° Northeast  Level Estimated
04:32PM 47.5392 10.8283 38° Northeast  Level Estimated
04:33PM 47.6051 10.9044 38° Northeast  Level Estimated
04:34PM 47.6710 10.9807 38° Northeast  Level Estimated
04:35PM 47.7369 11.0571 38° Northeast  Level Estimated
04:36PM 47.8027 11.1338 38° Northeast  Level Estimated
04:37PM 47.8684 11.2107 38° Northeast  Level Estimated
04:38PM 47.9341 11.2877 38° Northeast  Level Estimated
04:39PM 47.9997 11.3650 38° Northeast  Level Estimated
04:40PM 48.0653 11.4424 38° Northeast  Level Estimated
04:41PM 48.1309 11.5201 38° Northeast  Level Estimated
04:42PM 48.1964 11.5979 38° Northeast  Level Estimated
04:43PM 48.2618 11.6759 38° Northeast  Level Estimated
04:44PM 48.3272 11.7542 38° Northeast  Level Estimated
04:45PM 48.3538 11.7861 39° Northeast  Level Estimated
04:46PM 48.3538 11.7861 318° Northwest  Level Estimated
04:47PM 48.3538 11.7861 318° Northwest  Level Estimated
04:48PM 48.3538 11.7861 318° Northwest  Level Estimated
04:49PM 48.3538 11.7861 318° Northwest  Level Estimated
04:50PM 48.3538 11.7861 318° Northwest  Level Estimated
04:51PM 48.3538 11.7861 318° Northwest  Level Estimated
04:52PM 48.3538 11.7861 318° Northwest  Level Estimated
04:53PM 48.3538 11.7861 318° Northwest  Level Estimated
04:54PM 48.3538 11.7861 318° Northwest  Level Estimated
04:55PM 48.3538 11.7861 318° Northwest  Level Estimated